createdAt,value
2022-09-21T00:02:20.835Z,1.90
2022-09-21T00:04:47.367Z,1.85
2022-09-21T00:07:14.000Z,2.05
2022-09-21T00:09:40.478Z,1.75
2022-09-21T00:12:06.947Z,2.00
2022-09-21T00:14:33.459Z,1.73
2022-09-21T00:16:59.902Z,1.83
2022-09-21T00:19:26.495Z,2.13
2022-09-21T00:21:56.279Z,1.92
2022-09-21T00:24:22.859Z,2.03
2022-09-21T00:26:49.296Z,2.35
2022-09-21T00:29:15.763Z,1.73
2022-09-21T00:31:42.219Z,2.25
2022-09-21T00:34:09.073Z,1.80
2022-09-21T00:36:36.031Z,1.92
2022-09-21T00:39:03.117Z,2.10
2022-09-21T00:41:31.859Z,2.10
2022-09-21T00:44:16.516Z,2.15
2022-09-21T00:46:43.514Z,2.20
2022-09-21T00:49:10.398Z,2.25
2022-09-21T00:51:37.281Z,2.15
2022-09-21T00:54:13.190Z,1.95
2022-09-21T00:56:40.274Z,2.33
2022-09-21T00:59:07.533Z,2.30
2022-09-21T01:01:33.990Z,2.35
2022-09-21T01:04:01.580Z,2.50
2022-09-21T01:06:28.190Z,2.30
2022-09-21T01:08:56.569Z,2.17
2022-09-21T01:11:32.018Z,2.78
2022-09-21T01:14:20.224Z,2.40
2022-09-21T01:16:56.410Z,2.33
2022-09-21T01:19:37.618Z,2.00
2022-09-21T01:22:15.700Z,2.35
2022-09-21T01:25:23.628Z,2.40
2022-09-21T01:28:02.727Z,2.03
2022-09-21T01:30:30.112Z,2.53
2022-09-21T01:33:07.479Z,2.42
2022-09-21T01:35:41.150Z,2.30
2022-09-21T01:38:20.943Z,2.30
2022-09-21T01:40:51.504Z,2.80
2022-09-21T01:43:23.270Z,2.63
2022-09-21T01:45:52.160Z,2.25
2022-09-21T01:48:20.331Z,2.40
2022-09-21T01:50:50.886Z,2.72
2022-09-21T01:53:36.166Z,2.50
2022-09-21T01:56:08.030Z,2.60
2022-09-21T01:58:39.881Z,2.53
2022-09-21T02:01:07.031Z,2.70
2022-09-21T02:03:39.037Z,2.70
2022-09-21T02:06:06.391Z,2.95
2022-09-21T02:08:36.358Z,2.88
2022-09-21T02:11:05.060Z,2.90
2022-09-21T02:13:35.633Z,2.90
2022-09-21T02:16:08.300Z,2.47
2022-09-21T02:18:35.348Z,2.65
2022-09-21T02:21:03.929Z,2.40
2022-09-21T02:23:43.040Z,2.97
2022-09-21T02:26:13.870Z,2.90
2022-09-21T02:29:18.158Z,2.97
2022-09-21T02:32:07.499Z,2.63
2022-09-21T02:34:43.912Z,3.20
2022-09-21T02:37:17.505Z,2.97
2022-09-21T02:39:52.548Z,2.88
2022-09-21T02:42:29.984Z,3.08
2022-09-21T02:45:07.428Z,2.85
2022-09-21T02:47:38.531Z,2.88
2022-09-21T02:50:10.918Z,3.00
2022-09-21T02:52:39.709Z,3.05
2022-09-21T02:55:06.975Z,2.92
2022-09-21T02:57:33.444Z,3.10
2022-09-21T02:59:59.920Z,3.15
2022-09-21T03:02:39.644Z,3.17
2022-09-21T03:05:07.470Z,3.17
2022-09-21T03:07:34.784Z,2.63
2022-09-21T03:10:01.399Z,2.47
2022-09-21T03:12:28.032Z,3.00
2022-09-21T03:14:54.502Z,2.63
2022-09-21T03:17:20.975Z,3.25
2022-09-21T03:19:47.417Z,3.00
2022-09-21T03:22:13.882Z,2.72
2022-09-21T03:24:40.343Z,3.40
2022-09-21T03:27:06.934Z,3.42
2022-09-21T03:29:33.381Z,3.35
2022-09-21T03:31:59.824Z,3.15
2022-09-21T03:34:26.558Z,3.38
2022-09-21T03:36:53.092Z,3.78
2022-09-21T03:39:19.566Z,3.42
2022-09-21T03:41:46.070Z,3.50
2022-09-21T03:44:12.496Z,3.17
2022-09-21T03:46:39.285Z,3.08
2022-09-21T03:49:05.809Z,3.33
2022-09-21T03:51:32.470Z,2.88
2022-09-21T03:53:58.911Z,3.90
2022-09-21T03:56:25.516Z,3.70
2022-09-21T03:58:51.971Z,3.78
2022-09-21T04:01:18.570Z,3.97
2022-09-21T04:03:45.090Z,4.28
2022-09-21T04:06:12.683Z,4.05
2022-09-21T04:08:39.865Z,3.80
2022-09-21T04:11:14.633Z,3.72
2022-09-21T04:13:41.704Z,3.58
2022-09-21T04:16:09.516Z,3.85
2022-09-21T04:18:37.222Z,3.50
2022-09-21T04:21:03.753Z,3.63
2022-09-21T04:23:30.234Z,4.05
2022-09-21T04:25:56.963Z,4.00
2022-09-21T04:28:23.597Z,4.10
2022-09-21T04:30:53.503Z,4.63
2022-09-21T04:33:20.573Z,4.13
2022-09-21T04:35:54.736Z,4.07
2022-09-21T04:38:21.164Z,4.55
2022-09-21T04:40:55.226Z,4.18
2022-09-21T04:43:22.728Z,4.63
2022-09-21T04:45:49.305Z,4.28
2022-09-21T04:48:15.800Z,4.35
2022-09-21T04:50:42.334Z,4.10
2022-09-21T04:53:11.845Z,3.95
2022-09-21T04:55:38.439Z,4.07
2022-09-21T04:58:05.212Z,4.28
2022-09-21T05:00:31.817Z,4.57
2022-09-21T05:02:58.289Z,4.00
2022-09-21T05:05:24.868Z,4.13
2022-09-21T05:07:51.411Z,3.90
2022-09-21T05:10:17.868Z,3.78
2022-09-21T05:12:47.472Z,3.85
2022-09-21T05:15:14.118Z,4.10
2022-09-21T05:17:41.157Z,4.10
2022-09-21T05:20:07.885Z,4.10
2022-09-21T05:22:34.448Z,4.35
2022-09-21T05:25:01.208Z,4.72
2022-09-21T05:27:27.694Z,4.35
2022-09-21T05:29:54.509Z,4.40
2022-09-21T05:32:36.333Z,4.07
2022-09-21T05:35:12.540Z,4.65
2022-09-21T05:37:54.141Z,4.57
2022-09-21T05:40:21.869Z,4.35
2022-09-21T05:42:48.891Z,4.22
2022-09-21T05:45:17.501Z,4.45
2022-09-21T05:47:54.249Z,4.00
2022-09-21T05:50:29.815Z,4.63
2022-09-21T05:53:09.634Z,4.30
2022-09-21T05:55:58.739Z,4.30
2022-09-21T05:58:33.081Z,4.38
2022-09-21T06:01:18.395Z,3.72
2022-09-21T06:03:45.291Z,4.00
2022-09-21T06:06:11.782Z,4.30
2022-09-21T06:08:38.649Z,3.83
2022-09-21T06:11:05.416Z,3.90
2022-09-21T06:13:31.898Z,3.85
2022-09-21T06:16:02.067Z,3.75
2022-09-21T06:18:28.532Z,4.13
2022-09-21T06:20:55.075Z,3.75
2022-09-21T06:23:21.781Z,3.65
2022-09-21T06:25:58.296Z,4.18
2022-09-21T06:28:25.698Z,5.10
2022-09-21T06:30:53.332Z,3.92
2022-09-21T06:33:20.045Z,4.50
2022-09-21T06:35:57.567Z,4.35
2022-09-21T06:38:25.272Z,4.00
2022-09-21T06:40:52.511Z,4.18
2022-09-21T06:43:20.971Z,3.58
2022-09-21T06:45:58.926Z,3.70
2022-09-21T06:48:26.196Z,3.60
2022-09-21T06:51:00.259Z,3.78
2022-09-21T06:53:29.989Z,4.03
2022-09-21T06:56:04.455Z,3.83
2022-09-21T06:58:31.585Z,3.72
2022-09-21T07:00:58.096Z,3.72
2022-09-21T07:03:24.657Z,4.13
2022-09-21T07:05:54.134Z,4.03
2022-09-21T07:11:07.268Z,3.97
2022-09-21T07:13:34.204Z,3.90
2022-09-21T07:16:04.402Z,3.28
2022-09-21T07:18:42.539Z,3.50
2022-09-21T07:21:10.572Z,2.92
2022-09-21T07:23:37.335Z,3.20
2022-09-21T07:26:08.057Z,2.50
2022-09-21T07:28:35.155Z,3.20
2022-09-21T07:31:12.417Z,2.42
2022-09-21T07:33:38.869Z,2.60
2022-09-21T07:36:05.553Z,2.88
2022-09-21T07:38:35.097Z,2.70
2022-09-21T07:41:01.963Z,2.72
2022-09-21T07:43:28.491Z,2.63
2022-09-21T07:45:55.462Z,2.80
2022-09-21T07:48:22.775Z,2.70
2022-09-21T07:50:49.638Z,2.42
2022-09-21T07:53:16.216Z,2.90
2022-09-21T07:55:44.089Z,2.67
2022-09-21T07:58:10.768Z,2.80
2022-09-21T08:00:37.354Z,2.27
2022-09-21T08:03:04.896Z,2.97
2022-09-21T08:05:32.104Z,2.60
2022-09-21T08:07:58.859Z,2.70
2022-09-21T08:10:25.969Z,3.10
2022-09-21T08:12:52.599Z,2.90
2022-09-21T08:15:44.050Z,2.70
2022-09-21T08:18:05.737Z,2.40
2022-09-21T08:20:32.182Z,3.00
2022-09-21T08:22:58.682Z,2.87
2022-09-21T08:25:25.845Z,2.60
2022-09-21T08:27:52.304Z,3.37
2022-09-21T08:30:18.877Z,3.00
2022-09-21T08:32:51.601Z,2.90
2022-09-21T08:35:18.440Z,3.07
2022-09-21T08:37:44.938Z,3.00
2022-09-21T08:40:12.306Z,2.80
2022-09-21T08:42:46.409Z,3.10
2022-09-21T08:45:18.386Z,3.35
2022-09-21T08:47:53.796Z,3.30
2022-09-21T08:50:32.362Z,3.27
2022-09-21T08:53:04.092Z,3.78
2022-09-21T08:55:30.717Z,3.60
2022-09-21T08:57:59.494Z,3.58
2022-09-21T09:00:26.212Z,3.35
2022-09-21T09:03:17.914Z,3.20
2022-09-21T09:06:02.050Z,3.03
2022-09-21T09:08:44.961Z,3.45
2022-09-21T09:11:31.292Z,3.70
2022-09-21T09:14:09.477Z,3.95
2022-09-21T09:17:03.664Z,4.15
2022-09-21T09:19:41.375Z,3.72
2022-09-21T09:22:13.517Z,4.13
2022-09-21T09:24:51.375Z,3.75
2022-09-21T09:27:25.208Z,3.75
2022-09-21T09:30:02.026Z,4.10
2022-09-21T09:32:44.820Z,3.10
2022-09-21T09:35:17.044Z,3.38
2022-09-21T09:37:44.945Z,3.45
2022-09-21T09:40:13.073Z,4.13
2022-09-21T09:42:56.178Z,3.95
2022-09-21T09:45:50.829Z,4.22
2022-09-21T09:48:35.998Z,3.70
2022-09-21T09:51:02.539Z,4.03
2022-09-21T09:53:29.275Z,3.83
2022-09-21T09:55:57.217Z,4.07
2022-09-21T09:58:32.723Z,3.97
2022-09-21T10:00:59.227Z,4.30
2022-09-21T10:03:27.189Z,3.70
2022-09-21T10:05:54.245Z,3.85
2022-09-21T10:08:38.640Z,3.65
2022-09-21T10:11:05.959Z,3.70
2022-09-21T10:13:36.172Z,3.55
2022-09-21T10:16:26.182Z,3.15
2022-09-21T10:18:54.294Z,3.83
2022-09-21T10:21:28.062Z,4.00
2022-09-21T10:23:58.713Z,3.63
2022-09-21T10:26:31.465Z,3.22
2022-09-21T10:29:16.668Z,3.33
2022-09-21T10:31:57.944Z,3.40
2022-09-21T10:34:25.916Z,3.80
2022-09-21T10:36:54.535Z,3.47
2022-09-21T10:39:33.884Z,3.45
2022-09-21T10:42:00.264Z,3.85
2022-09-21T10:44:35.116Z,3.40
2022-09-21T10:47:16.653Z,4.10
2022-09-21T10:49:49.658Z,3.43
2022-09-21T10:52:17.644Z,3.53
2022-09-21T10:54:44.156Z,3.60
2022-09-21T10:57:16.453Z,3.20
2022-09-21T10:59:43.176Z,3.30
2022-09-21T11:02:37.400Z,3.50
2022-09-21T11:05:12.251Z,3.63
2022-09-21T11:07:44.688Z,3.33
2022-09-21T11:10:14.836Z,3.23
2022-09-21T11:13:08.892Z,3.00
2022-09-21T11:16:12.892Z,2.60
2022-09-21T11:19:00.238Z,3.13
2022-09-21T11:21:48.437Z,3.20
2022-09-21T11:24:21.370Z,3.00
2022-09-21T11:27:18.851Z,3.47
2022-09-21T11:30:11.108Z,3.67
2022-09-21T11:32:56.916Z,2.90
2022-09-21T11:35:47.264Z,2.93
2022-09-21T11:38:25.386Z,3.17
2022-09-21T11:40:54.825Z,3.40
2022-09-21T11:43:45.570Z,3.47
2022-09-21T11:46:25.339Z,2.97
2022-09-21T11:49:16.698Z,2.83
2022-09-21T11:52:16.468Z,2.90
2022-09-21T11:55:01.220Z,2.88
2022-09-21T11:57:38.009Z,5.80
2022-09-21T12:00:04.478Z,3.63
2022-09-21T12:02:52.110Z,3.00
2022-09-21T12:05:23.853Z,2.90
2022-09-21T12:08:02.305Z,3.30
2022-09-21T12:10:56.798Z,3.33
2022-09-21T12:13:55.940Z,3.47
2022-09-21T12:16:25.785Z,3.40
2022-09-21T12:19:30.071Z,3.65
2022-09-21T12:22:13.979Z,3.70
2022-09-21T12:24:45.682Z,3.30
2022-09-21T12:27:42.432Z,3.17
2022-09-21T12:30:20.288Z,3.30
2022-09-21T12:33:00.415Z,2.93
2022-09-21T12:38:21.780Z,3.25
2022-09-21T12:40:53.074Z,3.35
2022-09-21T12:43:32.415Z,3.70
2022-09-21T12:46:03.211Z,3.35
2022-09-21T12:48:33.949Z,3.50
2022-09-21T12:51:06.088Z,3.03
2022-09-21T12:53:35.555Z,3.43
2022-09-21T12:56:09.049Z,3.17
2022-09-21T12:58:48.524Z,2.83
2022-09-21T13:01:33.638Z,2.83
2022-09-21T13:04:10.375Z,2.93
2022-09-21T13:07:15.561Z,3.10
2022-09-21T13:09:42.933Z,3.10
2022-09-21T13:12:16.071Z,3.30
2022-09-21T13:14:47.447Z,3.10
2022-09-21T13:17:22.571Z,2.40
2022-09-21T13:20:14.465Z,3.10
2022-09-21T13:22:41.187Z,2.80
2022-09-21T13:25:19.852Z,2.80
2022-09-21T13:28:08.560Z,2.67
2022-09-21T13:30:44.870Z,3.00
2022-09-21T13:33:17.791Z,2.60
2022-09-21T13:35:50.899Z,2.70
2022-09-21T13:38:26.555Z,3.00
2022-09-21T13:41:45.518Z,2.53
2022-09-21T13:44:19.607Z,2.22
2022-09-21T13:46:49.885Z,2.80
2022-09-21T13:49:20.337Z,2.47
2022-09-21T13:52:08.436Z,2.20
2022-09-21T13:54:38.223Z,2.60
2022-09-21T13:57:09.018Z,2.35
2022-09-21T13:59:36.370Z,2.80
2022-09-21T14:02:03.866Z,2.63
2022-09-21T14:04:33.413Z,2.47
2022-09-21T14:07:04.544Z,2.53
2022-09-21T14:09:34.682Z,2.97
2022-09-21T14:12:04.960Z,2.40
2022-09-21T14:14:38.704Z,2.30
2022-09-21T14:17:06.244Z,2.57
2022-09-21T14:19:32.635Z,2.97
2022-09-21T14:22:25.064Z,2.87
2022-09-21T14:25:25.340Z,2.60
2022-09-21T14:27:53.610Z,2.87
2022-09-21T14:30:20.143Z,2.60
2022-09-21T14:33:05.564Z,2.80
2022-09-21T14:35:34.313Z,2.90
2022-09-21T14:38:03.131Z,2.90
2022-09-21T14:40:35.534Z,2.97
2022-09-21T14:43:07.257Z,2.60
2022-09-21T14:46:13.627Z,2.60
2022-09-21T14:48:42.770Z,2.50
2022-09-21T14:51:20.474Z,2.65
2022-09-21T14:54:11.037Z,2.70
2022-09-21T14:56:50.635Z,2.40
2022-09-21T14:59:23.192Z,2.38
2022-09-21T15:02:00.896Z,2.07
2022-09-21T15:04:31.247Z,2.40
2022-09-21T15:07:01.715Z,2.30
2022-09-21T15:09:46.178Z,2.70
2022-09-21T15:12:19.587Z,2.00
2022-09-21T15:15:00.073Z,2.17
2022-09-21T15:17:28.798Z,2.30
2022-09-21T15:20:00.098Z,2.37
2022-09-21T15:22:27.737Z,2.50
2022-09-21T15:24:59.103Z,2.20
2022-09-21T15:27:30.160Z,3.10
2022-09-21T15:29:57.093Z,3.60
2022-09-21T15:32:46.417Z,3.00
2022-09-21T15:35:20.407Z,2.55
2022-09-21T15:37:47.573Z,2.23
2022-09-21T15:40:26.652Z,3.50
2022-09-21T15:43:11.237Z,3.20
2022-09-21T15:45:55.858Z,2.80
2022-09-21T15:48:28.271Z,2.27
2022-09-21T15:51:17.987Z,2.83
2022-09-21T15:53:47.389Z,2.90
2022-09-21T15:56:33.152Z,3.17
2022-09-21T15:59:01.669Z,3.10
2022-09-21T16:01:28.282Z,2.77
2022-09-21T16:04:07.747Z,3.87
2022-09-21T16:06:39.517Z,3.55
2022-09-21T16:09:24.393Z,3.07
2022-09-21T16:11:54.442Z,2.80
2022-09-21T16:17:11.735Z,2.13
2022-09-21T16:19:50.108Z,2.30
2022-09-21T16:22:25.616Z,2.73
2022-09-21T16:24:54.255Z,2.47
2022-09-21T16:27:24.136Z,2.50
2022-09-21T16:29:51.951Z,2.75
2022-09-21T16:32:18.316Z,2.47
2022-09-21T16:34:45.972Z,2.40
2022-09-21T16:37:24.073Z,2.60
2022-09-21T16:40:10.035Z,2.40
2022-09-21T16:42:36.735Z,2.20
2022-09-21T16:45:09.135Z,2.20
2022-09-21T16:47:37.198Z,2.70
2022-09-21T16:50:07.168Z,2.70
2022-09-21T16:52:33.636Z,2.42
2022-09-21T16:55:00.123Z,2.23
2022-09-21T16:57:26.593Z,2.27
2022-09-21T16:59:53.131Z,2.47
2022-09-21T17:02:19.711Z,2.40
2022-09-21T17:04:46.365Z,2.00
2022-09-21T17:07:13.774Z,2.40
2022-09-21T17:09:42.463Z,2.35
2022-09-21T17:12:13.770Z,2.17
2022-09-21T17:14:44.302Z,2.13
2022-09-21T17:17:23.107Z,1.97
2022-09-21T17:19:50.923Z,2.03
2022-09-21T17:22:18.094Z,2.07
2022-09-21T17:24:51.214Z,2.00
2022-09-21T17:27:27.900Z,2.20
2022-09-21T17:29:54.482Z,1.98
2022-09-21T17:32:22.943Z,2.05
2022-09-21T17:35:16.689Z,1.70
2022-09-21T17:37:43.587Z,2.00
2022-09-21T17:40:11.282Z,2.10
2022-09-21T17:42:42.663Z,2.03
2022-09-21T17:45:30.649Z,2.10
2022-09-21T17:47:57.236Z,2.00
2022-09-21T17:50:25.888Z,2.95
2022-09-21T17:52:53.663Z,3.03
2022-09-21T17:55:20.869Z,2.42
2022-09-21T17:58:08.800Z,2.30
2022-09-21T18:00:55.713Z,1.92
2022-09-21T18:03:25.170Z,2.03
2022-09-21T18:05:53.218Z,1.98
2022-09-21T18:08:20.110Z,1.92
2022-09-21T18:11:18.048Z,2.10
2022-09-21T18:14:26.457Z,1.90
2022-09-21T18:17:04.921Z,2.28
2022-09-21T18:20:04.233Z,1.95
2022-09-21T18:22:53.423Z,1.95
2022-09-21T18:25:29.527Z,2.20
2022-09-21T18:27:57.545Z,1.88
2022-09-21T18:30:24.620Z,1.90
2022-09-21T18:33:14.311Z,2.22
2022-09-21T18:35:48.126Z,2.00
2022-09-21T18:38:22.895Z,1.83
2022-09-21T18:40:58.486Z,2.20
2022-09-21T18:43:47.986Z,1.80
2022-09-21T18:46:21.411Z,2.15
2022-09-21T18:49:02.913Z,1.92
2022-09-21T18:51:45.560Z,2.00
2022-09-21T18:54:19.436Z,1.70
2022-09-21T18:56:46.537Z,2.00
2022-09-21T18:59:15.912Z,1.88
2022-09-21T19:01:43.862Z,2.20
2022-09-21T19:04:10.802Z,1.63
2022-09-21T19:06:47.886Z,2.10
2022-09-21T19:09:35.593Z,1.80
2022-09-21T19:12:07.515Z,1.70
2022-09-21T19:15:24.266Z,1.90
2022-09-21T19:18:01.382Z,2.08
2022-09-21T19:20:30.699Z,1.80
2022-09-21T19:23:16.407Z,1.58
2022-09-21T19:25:57.378Z,1.65
2022-09-21T19:28:50.463Z,1.83
2022-09-21T19:31:18.247Z,1.60
2022-09-21T19:33:50.424Z,1.42
2022-09-21T19:36:18.500Z,1.77
2022-09-21T19:38:47.777Z,1.77
2022-09-21T19:41:31.596Z,1.50
2022-09-21T19:44:00.704Z,1.85
2022-09-21T19:46:37.569Z,1.40
2022-09-21T19:49:16.800Z,1.55
2022-09-21T19:51:47.428Z,1.52
2022-09-21T19:54:17.255Z,1.83
2022-09-21T19:56:52.136Z,2.15
2022-09-21T19:59:24.339Z,1.60
2022-09-21T20:01:56.662Z,1.80
2022-09-21T20:04:32.628Z,2.00
2022-09-21T20:07:07.408Z,1.83
2022-09-21T20:09:41.653Z,1.60
2022-09-21T20:12:14.781Z,2.03
2022-09-21T20:14:53.387Z,1.67
2022-09-21T20:17:48.422Z,1.88
2022-09-21T20:20:24.055Z,1.77
2022-09-21T20:22:51.007Z,1.80
2022-09-21T20:25:27.853Z,1.92
2022-09-21T20:27:56.189Z,1.88
2022-09-21T20:30:26.440Z,1.83
2022-09-21T20:35:28.258Z,1.83
2022-09-21T20:37:59.847Z,1.90
2022-09-21T20:40:29.224Z,2.10
2022-09-21T20:42:56.501Z,2.10
2022-09-21T20:45:23.074Z,1.85
2022-09-21T20:47:50.747Z,1.90
2022-09-21T20:50:17.878Z,1.80
2022-09-21T20:52:44.859Z,2.22
2022-09-21T20:55:17.134Z,2.00
2022-09-21T20:57:44.610Z,1.70
2022-09-21T21:00:14.411Z,2.00
2022-09-21T21:02:42.256Z,1.75
2022-09-21T21:05:09.522Z,1.88
2022-09-21T21:07:36.421Z,1.98
2022-09-21T21:10:04.395Z,1.90
2022-09-21T21:12:31.186Z,1.80
2022-09-21T21:14:58.096Z,2.25
2022-09-21T21:17:27.058Z,1.75
2022-09-21T21:19:53.529Z,1.80
2022-09-21T21:22:20.067Z,1.85
2022-09-21T21:24:46.528Z,1.95
2022-09-21T21:27:18.100Z,1.80
2022-09-21T21:29:48.981Z,1.90
2022-09-21T21:32:16.959Z,1.55
2022-09-21T21:34:43.868Z,2.17
2022-09-21T21:37:12.520Z,1.88
2022-09-21T21:39:39.343Z,2.25
2022-09-21T21:42:08.946Z,1.95
2022-09-21T21:44:35.880Z,1.92
2022-09-21T21:47:21.328Z,1.60
2022-09-21T21:49:49.603Z,1.67
2022-09-21T21:52:16.369Z,2.20
2022-09-21T21:54:42.909Z,1.80
2022-09-21T21:57:09.490Z,1.70
2022-09-21T21:59:38.206Z,1.63
2022-09-21T22:02:04.743Z,1.60
2022-09-21T22:04:31.491Z,1.63
2022-09-21T22:06:58.150Z,1.80
2022-09-21T22:09:35.497Z,2.10
2022-09-21T22:12:03.759Z,2.35
2022-09-21T22:14:30.473Z,1.85
2022-09-21T22:16:57.052Z,1.90
2022-09-21T22:19:23.977Z,2.00
2022-09-21T22:21:54.022Z,1.90
2022-09-21T22:24:21.621Z,2.17
2022-09-21T22:26:48.530Z,2.08
2022-09-21T22:29:16.016Z,1.40
2022-09-21T22:31:47.326Z,2.20
2022-09-21T22:34:14.776Z,2.08
2022-09-21T22:36:41.513Z,1.92
2022-09-21T22:39:08.431Z,2.05
2022-09-21T22:41:40.428Z,2.00
2022-09-21T22:44:07.503Z,1.98
2022-09-21T22:46:34.519Z,2.00
2022-09-21T22:49:01.830Z,1.80
2022-09-21T22:51:28.885Z,2.20
2022-09-21T22:53:55.805Z,2.00
2022-09-21T22:56:27.160Z,1.90
2022-09-21T22:58:55.666Z,1.92
2022-09-21T23:01:30.509Z,1.90
2022-09-21T23:04:00.907Z,2.13
2022-09-21T23:06:30.037Z,1.88
2022-09-21T23:08:57.494Z,1.85
2022-09-21T23:11:26.699Z,2.13
2022-09-21T23:13:54.152Z,2.38
2022-09-21T23:16:20.790Z,2.00
2022-09-21T23:18:48.681Z,2.05
2022-09-21T23:21:17.179Z,2.10
2022-09-21T23:23:44.351Z,2.35
2022-09-21T23:26:13.277Z,2.20
2022-09-21T23:28:41.206Z,1.90
2022-09-21T23:31:09.820Z,2.30
2022-09-21T23:33:42.041Z,1.95
2022-09-21T23:36:10.224Z,2.33
2022-09-21T23:38:37.171Z,2.10
2022-09-21T23:41:07.921Z,2.05
2022-09-21T23:43:35.350Z,2.25
2022-09-21T23:46:02.212Z,2.28
2022-09-21T23:48:29.064Z,2.10
2022-09-21T23:50:56.236Z,2.15
2022-09-21T23:53:23.800Z,1.95
2022-09-21T23:55:50.636Z,2.08
2022-09-21T23:58:17.235Z,2.60
